Time;durP1;ratioP1;P1;durP2;ratioP2;P2;SDS_P1;SDS_P2;PMS_P1;PMS_P2;Temp;Humidity;BMP_temperature;BMP_pressure;BME280_temperature;BME280_humidity;BME280_pressure;Samples;Min_cycle;Max_cycle;Signal;HPM_P1;HPM_P2
2022/06/16 00:01:18;;;;;;;9.38;4.28;;;;;;;17.54;76.55;100526.41;5054379;28;20393;-85
2022/06/16 00:03:46;;;;;;;8.40;4.00;;;;;;;17.44;76.30;100515.53;5054031;28;20045;-84
2022/06/16 00:06:14;;;;;;;7.95;4.40;;;;;;;17.66;74.32;100516.41;5053699;28;20044;-85
2022/06/16 00:08:42;;;;;;;8.25;4.35;;;;;;;17.71;74.93;100517.75;5054092;28;20045;-85
2022/06/16 00:11:19;;;;;;;8.95;4.13;;;;;;;17.88;73.71;100516.31;5054146;28;20120;-85
2022/06/16 00:13:51;;;;;;;9.57;4.53;;;;;;;17.80;73.60;100526.91;5053887;28;20482;-84
2022/06/16 00:16:20;;;;;;;9.23;4.40;;;;;;;17.79;73.92;100518.94;5054004;28;20052;-85
2022/06/16 00:18:49;;;;;;;7.85;4.20;;;;;;;17.79;73.41;100516.25;5053829;28;20049;-85
2022/06/16 00:21:18;;;;;;;10.55;4.68;;;;;;;17.83;72.24;100517.69;5054059;28;20077;-85
2022/06/16 00:23:46;;;;;;;8.25;4.03;;;;;;;17.92;72.71;100517.75;5053967;28;20033;-85
2022/06/16 00:26:17;;;;;;;7.15;3.72;;;;;;;17.87;72.96;100514.59;5054049;28;20049;-85
2022/06/16 00:28:46;;;;;;;10.68;4.07;;;;;;;17.75;72.17;100510.25;5053844;28;20497;-85
2022/06/16 00:31:19;;;;;;;8.20;4.00;;;;;;;17.74;71.44;100504.00;5052789;28;20048;-85
2022/06/16 00:33:47;;;;;;;11.55;4.32;;;;;;;17.79;72.81;100508.16;5053694;28;20474;-80
2022/06/16 00:36:16;;;;;;;11.02;4.47;;;;;;;17.82;71.82;100506.03;5053682;28;20139;-79
2022/06/16 00:38:45;;;;;;;6.65;4.00;;;;;;;17.82;71.66;100499.78;5053486;28;20387;-78
2022/06/16 00:41:14;;;;;;;10.38;4.38;;;;;;;17.82;71.43;100500.66;5053803;28;20047;-79
2022/06/16 00:43:42;;;;;;;8.18;4.32;;;;;;;17.77;72.90;100491.25;5069302;28;20375;-79
2022/06/16 00:46:14;;;;;;;7.55;3.65;;;;;;;17.79;72.40;100491.97;5053244;28;20045;-79
2022/06/16 00:48:48;;;;;;;7.47;4.20;;;;;;;17.77;72.29;100494.81;5053686;28;20041;-78
2022/06/16 00:51:21;;;;;;;7.95;4.07;;;;;;;17.51;74.16;100498.84;5053342;28;20033;-78
2022/06/16 00:53:50;;;;;;;9.15;3.92;;;;;;;17.34;75.05;100494.88;5053073;28;20077;-79
2022/06/16 00:56:22;;;;;;;7.22;4.05;;;;;;;17.33;75.49;100493.16;5053423;28;20059;-83
2022/06/16 00:58:54;;;;;;;8.60;4.25;;;;;;;17.35;75.84;100492.03;5053122;28;20410;-83
2022/06/16 01:01:23;;;;;;;8.63;4.17;;;;;;;17.28;76.49;100488.19;5054864;28;20068;-81
2022/06/16 01:06:39;;;;;;;8.32;3.90;;;;;;;17.24;76.86;100478.63;5053846;28;20041;-81
2022/06/16 01:09:10;;;;;;;9.98;4.30;;;;;;;17.03;78.05;100472.34;5053005;28;20076;-78
2022/06/16 01:14:54;;;;;;;8.32;3.65;;;;;;;17.13;76.46;100466.06;5053198;28;20041;-84
2022/06/16 01:17:32;;;;;;;11.05;4.60;;;;;;;16.84;78.50;100473.00;5056688;28;20048;-82
2022/06/16 01:20:13;;;;;;;8.20;3.92;;;;;;;16.69;80.01;100472.44;5059681;28;20052;-80
2022/06/16 01:23:05;;;;;;;7.80;4.50;;;;;;;16.77;79.75;100469.09;5059675;28;20378;-83
2022/06/16 01:25:44;;;;;;;8.38;4.05;;;;;;;16.86;78.79;100468.34;5049315;28;20057;-83
2022/06/16 01:28:22;;;;;;;8.18;3.90;;;;;;;17.04;77.64;100466.81;5059530;28;20055;-84
2022/06/16 01:31:00;;;;;;;6.38;3.88;;;;;;;17.03;76.95;100465.09;5059760;28;20045;-83
2022/06/16 01:33:39;;;;;;;7.07;3.53;;;;;;;17.03;76.13;100459.72;5060079;28;20053;-85
2022/06/16 01:36:13;;;;;;;7.00;3.33;;;;;;;16.82;76.86;100456.97;5066766;28;20047;-86
2022/06/16 01:38:47;;;;;;;8.05;3.80;;;;;;;16.67;77.78;100462.72;5066486;28;20051;-86
2022/06/16 01:41:22;;;;;;;6.95;3.85;;;;;;;16.69;77.83;100467.03;5063189;28;20097;-84
2022/06/16 01:43:55;;;;;;;8.25;3.72;;;;;;;16.52;78.36;100463.03;5061693;28;20037;-84
2022/06/16 01:46:29;;;;;;;7.72;4.00;;;;;;;16.68;78.54;100465.34;5059897;28;20044;-84
2022/06/16 01:49:03;;;;;;;9.52;3.42;;;;;;;16.66;76.67;100464.56;5059124;28;20044;-86
2022/06/16 01:51:38;;;;;;;7.80;3.42;;;;;;;16.68;76.39;100459.06;5059448;28;20079;-86
2022/06/16 01:54:12;;;;;;;7.53;3.45;;;;;;;16.52;76.89;100454.94;5057986;28;20053;-86
2022/06/16 01:56:46;;;;;;;6.35;3.65;;;;;;;16.54;76.91;100468.28;5059668;28;20054;-86
2022/06/16 01:59:18;;;;;;;9.55;3.97;;;;;;;16.48;78.11;100458.84;5059264;28;20561;-86
2022/06/16 02:01:51;;;;;;;7.33;3.90;;;;;;;16.45;78.41;100461.81;5059698;28;20041;-85
2022/06/16 02:04:21;;;;;;;;;;;;;;;16.45;78.48;100461.81;5059870;28;20076;-85
2022/06/16 02:06:54;;;;;;;5.85;3.45;;;;;;;16.34;79.72;100461.81;5063722;28;19925;-86
2022/06/16 02:09:28;;;;;;;7.38;3.72;;;;;;;16.38;79.96;100451.66;5079618;28;20044;-86
2022/06/16 02:12:01;;;;;;;8.90;4.00;;;;;;;16.34;80.07;100451.06;5077922;28;20056;-85
2022/06/16 02:14:34;;;;;;;5.18;3.58;;;;;;;16.23;80.75;100456.47;5079525;28;20139;-86
2022/06/16 02:17:04;;;;;;;10.60;3.63;;;;;;;16.24;80.22;100447.41;5079269;28;20485;-83
2022/06/16 02:19:33;;;;;;;9.50;3.63;;;;;;;16.16;80.74;100457.91;5079652;28;20397;-84
2022/06/16 02:22:02;;;;;;;6.43;3.67;;;;;;;16.03;81.03;100458.91;5079239;28;20048;-79
2022/06/16 02:24:31;;;;;;;8.15;4.20;;;;;;;15.84;82.14;100455.97;5079418;28;20045;-82
2022/06/16 02:27:01;;;;;;;9.25;3.97;;;;;;;15.89;81.95;100456.44;5078861;28;20490;-84
2022/06/16 02:29:33;;;;;;;6.35;4.05;;;;;;;15.91;81.64;100459.84;5076144;28;20478;-84
2022/06/16 02:32:35;;;;;;;6.15;3.72;;;;;;;15.82;82.38;100451.66;5075897;28;20119;-81
2022/06/16 02:35:21;;;;;;;9.23;4.03;;;;;;;15.84;82.52;100455.97;5075885;28;20123;-77
2022/06/16 02:38:07;;;;;;;7.82;3.85;;;;;;;15.90;81.85;100452.78;5076008;28;20048;-76
2022/06/16 02:40:58;;;;;;;7.15;4.03;;;;;;;15.74;83.05;100460.34;5075504;28;20508;-75
2022/06/16 02:43:57;;;;;;;7.75;3.97;;;;;;;15.75;83.11;100459.38;5075870;28;20041;-75
2022/06/16 02:46:39;;;;;;;8.52;4.03;;;;;;;15.79;83.36;100455.47;5075830;28;20041;-71
2022/06/16 02:49:18;;;;;;;10.00;4.22;;;;;;;15.80;83.32;100457.16;5075501;28;20045;-73
2022/06/16 02:51:58;;;;;;;9.38;3.90;;;;;;;15.95;82.47;100464.03;5075741;28;20045;-75
2022/06/16 02:54:31;;;;;;;6.65;3.63;;;;;;;16.06;82.08;100462.31;5075313;28;20048;-75
2022/06/16 02:57:03;;;;;;;;;;;;;;;15.95;83.27;100472.09;5075910;28;20044;-75
2022/06/16 02:59:37;;;;;;;7.47;3.78;;;;;;;15.91;83.41;100461.69;5075258;28;19920;-78
2022/06/16 03:02:09;;;;;;;6.40;3.70;;;;;;;15.69;85.88;100462.53;5075335;28;20115;-77
2022/06/16 03:04:41;;;;;;;6.97;4.18;;;;;;;15.96;84.46;100463.06;5075633;28;20041;-77
2022/06/16 03:07:13;;;;;;;7.05;3.65;;;;;;;15.82;85.94;100465.97;5075011;28;20059;-77
2022/06/16 03:09:42;;;;;;;7.70;3.78;;;;;;;16.00;84.53;100469.88;5075573;28;20052;-77
2022/06/16 03:12:13;;;;;;;12.00;4.00;;;;;;;16.07;84.23;100475.66;5074850;28;20067;-77
2022/06/16 03:14:42;;;;;;;5.72;3.55;;;;;;;16.20;83.32;100470.13;5074880;28;20063;-75
2022/06/16 03:17:12;;;;;;;10.85;3.65;;;;;;;16.35;82.05;100470.75;5075241;28;20063;-75
2022/06/16 03:19:42;;;;;;;10.05;3.90;;;;;;;16.57;80.25;100476.97;5075191;28;20470;-73
2022/06/16 03:22:11;;;;;;;10.73;3.65;;;;;;;16.67;79.80;100473.50;5075149;28;20472;-73
2022/06/16 03:24:41;;;;;;;9.55;3.50;;;;;;;16.85;79.15;100472.88;5074772;28;20048;-73
2022/06/16 03:27:09;;;;;;;14.23;4.20;;;;;;;17.03;77.81;100475.88;5074819;28;20470;-74
2022/06/16 03:29:37;;;;;;;9.35;3.60;;;;;;;17.28;76.16;100473.84;5074844;28;20037;-74
2022/06/16 03:32:06;;;;;;;11.32;4.25;;;;;;;17.35;75.52;100480.41;5074558;28;20052;-75
2022/06/16 03:34:35;;;;;;;9.77;4.18;;;;;;;17.76;73.58;100467.94;5074054;28;20068;-75
2022/06/16 03:37:05;;;;;;;7.65;4.00;;;;;;;18.63;69.29;100473.72;5074462;28;20536;-75
2022/06/16 03:39:34;;;;;;;7.30;3.97;;;;;;;19.39;65.68;100475.66;5074342;28;20055;-75
2022/06/16 03:42:02;;;;;;;9.95;4.43;;;;;;;20.14;61.75;100473.94;5073826;28;20062;-75
2022/06/16 03:44:30;;;;;;;6.88;3.60;;;;;;;20.83;58.56;100469.91;5073356;28;20055;-76
2022/06/16 03:46:58;;;;;;;9.40;3.72;;;;;;;21.07;56.14;100478.31;5074577;28;20064;-76
2022/06/16 03:49:26;;;;;;;9.95;3.90;;;;;;;21.30;55.55;100467.03;5074411;28;20060;-76
2022/06/16 03:51:54;;;;;;;7.90;3.58;;;;;;;21.84;54.11;100465.91;5074338;28;20064;-76
2022/06/16 03:54:24;;;;;;;8.40;3.35;;;;;;;22.34;51.92;100464.34;5074200;28;20474;-76
2022/06/16 03:56:52;;;;;;;8.52;3.55;;;;;;;22.51;51.33;100471.56;5074453;28;20393;-76
2022/06/16 03:59:21;;;;;;;8.45;3.55;;;;;;;22.92;50.38;100472.56;5074204;28;20129;-74
2022/06/16 04:01:50;;;;;;;8.20;3.65;;;;;;;22.87;50.15;100471.34;5074187;28;20040;-74
2022/06/16 04:04:25;;;;;;;9.40;3.60;;;;;;;23.48;47.94;100478.25;5074008;28;20044;-74
2022/06/16 04:06:53;;;;;;;8.60;3.40;;;;;;;23.94;45.60;100480.28;5073807;28;20127;-73
2022/06/16 04:09:22;;;;;;;7.25;3.33;;;;;;;23.70;46.80;100477.59;5073894;28;20040;-74
2022/06/16 04:11:51;;;;;;;6.90;3.75;;;;;;;23.88;46.99;100480.97;5074043;28;20075;-74
2022/06/16 04:14:20;;;;;;;6.55;3.47;;;;;;;24.07;45.99;100485.19;5073517;28;20052;-76
2022/06/16 04:16:51;;;;;;;8.63;4.00;;;;;;;24.35;45.06;100482.94;5074145;28;20058;-76
2022/06/16 04:19:22;;;;;;;7.27;4.00;;;;;;;24.55;44.21;100476.03;5073851;28;20078;-78
2022/06/16 04:21:53;;;;;;;6.75;3.50;;;;;;;24.93;43.70;100481.63;5073782;28;20044;-82
2022/06/16 04:24:23;;;;;;;6.53;3.65;;;;;;;25.02;43.09;100480.56;5073738;28;20056;-76
2022/06/16 04:26:54;;;;;;;6.82;3.42;;;;;;;25.43;42.09;100480.28;5073746;28;20131;-75
2022/06/16 04:29:23;;;;;;;7.05;3.72;;;;;;;25.68;41.82;100481.78;5073457;28;20041;-75
2022/06/16 04:31:51;;;;;;;7.97;4.00;;;;;;;25.49;41.75;100476.81;5073476;28;20043;-77
2022/06/16 04:34:20;;;;;;;8.52;3.97;;;;;;;25.22;42.56;100482.84;5073604;28;20045;-77
2022/06/16 04:36:50;;;;;;;7.45;4.20;;;;;;;25.71;40.93;100480.56;5073694;28;20467;-77
2022/06/16 04:39:19;;;;;;;8.65;3.85;;;;;;;26.09;40.15;100478.66;5073416;28;20070;-77
2022/06/16 04:41:47;;;;;;;6.93;3.90;;;;;;;26.09;40.59;100480.53;5073573;28;20052;-76
2022/06/16 04:44:18;;;;;;;8.25;4.22;;;;;;;26.18;39.66;100483.00;5073648;28;20041;-77
2022/06/16 04:46:47;;;;;;;8.55;4.40;;;;;;;26.53;38.43;100486.03;5073378;28;20512;-76
2022/06/16 04:49:15;;;;;;;7.88;4.50;;;;;;;26.58;38.27;100480.00;5073649;28;20120;-76
2022/06/16 04:51:43;;;;;;;13.48;4.72;;;;;;;27.26;37.00;100473.22;5053964;28;20049;-75
2022/06/16 04:54:11;;;;;;;10.18;4.43;;;;;;;26.86;37.72;100480.13;5053423;28;20486;-75
2022/06/16 04:56:39;;;;;;;9.65;4.85;;;;;;;27.15;37.91;100479.22;5053934;28;20060;-76
2022/06/16 04:59:07;;;;;;;8.70;4.35;;;;;;;27.33;36.94;100474.16;5053106;28;20047;-77
2022/06/16 05:01:37;;;;;;;9.50;4.70;;;;;;;27.38;36.02;100472.50;5053499;28;20140;-76
2022/06/16 05:04:06;;;;;;;9.57;4.38;;;;;;;27.24;36.67;100472.59;5053472;28;20083;-70
2022/06/16 05:06:34;;;;;;;7.75;4.35;;;;;;;28.06;35.98;100472.03;5053405;28;20434;-70
2022/06/16 05:09:02;;;;;;;8.15;4.45;;;;;;;28.40;36.00;100468.47;5053014;28;20041;-71
2022/06/16 05:11:30;;;;;;;7.95;4.85;;;;;;;28.09;35.39;100474.38;5052806;28;20048;-70
2022/06/16 05:14:00;;;;;;;10.57;5.00;;;;;;;28.34;35.38;100463.78;5053183;28;20048;-71
2022/06/16 05:16:29;;;;;;;8.68;4.55;;;;;;;28.83;34.49;100463.56;5052873;28;20064;-71
2022/06/16 05:18:58;;;;;;;10.77;5.43;;;;;;;29.29;34.55;100462.88;5051815;28;20106;-73
2022/06/16 05:21:26;;;;;;;8.75;4.43;;;;;;;29.36;33.01;100469.25;5052862;28;20179;-73
2022/06/16 05:23:57;;;;;;;9.75;4.90;;;;;;;29.40;32.91;100464.16;5053210;28;20063;-73
2022/06/16 05:26:25;;;;;;;7.80;4.88;;;;;;;29.42;32.86;100465.63;5052769;28;20059;-74
2022/06/16 05:28:54;;;;;;;9.52;5.13;;;;;;;29.71;32.62;100472.66;5053167;28;20052;-69
2022/06/16 05:31:23;;;;;;;8.48;5.10;;;;;;;29.43;32.86;100469.22;5052149;28;20064;-71
2022/06/16 05:33:51;;;;;;;11.52;5.15;;;;;;;29.64;32.31;100464.44;5052476;28;20053;-74
2022/06/16 05:36:21;;;;;;;11.23;5.82;;;;;;;29.92;32.02;100460.59;5051145;28;20083;-71
2022/06/16 05:38:49;;;;;;;14.63;5.03;;;;;;;29.70;32.81;100464.63;5052802;28;20516;-69
2022/06/16 05:41:24;;;;;;;11.38;5.53;;;;;;;29.66;32.57;100457.88;5052459;28;20049;-70
2022/06/16 05:43:52;;;;;;;8.77;5.25;;;;;;;29.81;32.03;100456.56;5052498;28;20106;-69
2022/06/16 05:46:23;;;;;;;8.90;4.90;;;;;;;30.27;31.73;100460.34;5052577;28;20049;-74
2022/06/16 05:48:52;;;;;;;8.20;4.78;;;;;;;30.61;30.84;100462.78;5052813;28;20440;-70
2022/06/16 05:51:22;;;;;;;8.18;4.75;;;;;;;30.73;30.77;100463.81;5052474;28;20041;-69
2022/06/16 05:53:51;;;;;;;7.28;4.50;;;;;;;30.88;30.93;100462.66;5052941;28;20041;-70
2022/06/16 05:56:19;;;;;;;8.10;4.22;;;;;;;30.98;30.17;100463.03;5067887;28;20049;-70
2022/06/16 05:58:47;;;;;;;9.35;4.22;;;;;;;31.17;29.95;100462.06;5052749;28;20445;-68
2022/06/16 06:01:16;;;;;;;8.55;4.15;;;;;;;31.09;29.84;100458.75;5051045;28;20045;-71
2022/06/16 06:03:48;;;;;;;10.18;4.30;;;;;;;31.72;28.80;100459.56;5053561;28;20090;-72
2022/06/16 06:06:16;;;;;;;9.25;4.40;;;;;;;31.77;28.96;100462.53;5056275;28;20045;-70
2022/06/16 06:17:08;;;;;;;11.85;4.47;;;;;;;32.33;27.87;100460.69;5065872;28;20044;-70
2022/06/16 06:19:37;;;;;;;8.05;4.10;;;;;;;32.17;29.18;100468.50;5074480;28;20098;-70
2022/06/16 06:22:11;;;;;;;6.72;3.45;;;;;;;31.93;28.93;100461.09;5073897;28;20101;-72
2022/06/16 06:24:43;;;;;;;8.80;3.80;;;;;;;31.77;29.71;100451.50;5076301;28;20120;-72
2022/06/16 06:27:14;;;;;;;9.83;4.50;;;;;;;31.01;30.47;100455.19;5075813;28;20075;-73
2022/06/16 06:29:43;;;;;;;6.60;3.60;;;;;;;31.73;30.40;100454.88;5075783;28;20041;-72
2022/06/16 06:32:14;;;;;;;8.43;3.45;;;;;;;32.41;28.85;100444.66;5074513;28;20477;-72
2022/06/16 06:34:42;;;;;;;8.93;3.42;;;;;;;32.70;28.60;100450.47;5075991;28;20079;-71
2022/06/16 06:37:13;;;;;;;5.72;3.28;;;;;;;32.93;27.40;100458.06;5075375;28;20048;-74
2022/06/16 06:39:43;;;;;;;7.28;3.60;;;;;;;32.84;28.41;100454.78;5074917;28;20049;-73
2022/06/16 06:42:11;;;;;;;7.85;3.40;;;;;;;32.40;28.60;100462.31;5075501;28;20048;-72
2022/06/16 06:44:40;;;;;;;7.65;3.45;;;;;;;32.74;27.58;100462.75;5075768;28;20541;-74
2022/06/16 06:47:10;;;;;;;6.90;3.50;;;;;;;33.12;28.26;100468.00;5075595;28;20044;-71
2022/06/16 06:49:38;;;;;;;7.60;3.40;;;;;;;33.56;27.19;100463.91;5075609;28;20075;-69
2022/06/16 06:52:07;;;;;;;7.88;3.40;;;;;;;33.07;27.99;100464.25;5075622;28;20040;-71
2022/06/16 06:54:36;;;;;;;9.77;3.47;;;;;;;33.13;27.78;100466.06;5074309;28;20555;-73
2022/06/16 06:57:06;;;;;;;10.95;3.55;;;;;;;33.10;27.62;100461.00;5060497;28;20075;-70
2022/06/16 06:59:35;;;;;;;7.03;3.22;;;;;;;32.63;28.67;100460.78;5055136;28;20048;-71
2022/06/16 07:02:05;;;;;;;10.18;3.95;;;;;;;30.79;30.49;100459.34;5057414;28;20049;-71
2022/06/16 07:04:34;;;;;;;7.30;3.53;;;;;;;30.34;31.97;100461.19;5055034;28;20075;-74
2022/06/16 07:07:02;;;;;;;7.55;3.45;;;;;;;30.05;32.57;100463.31;5054973;28;20551;-74
2022/06/16 07:09:31;;;;;;;6.63;3.45;;;;;;;29.93;33.29;100459.53;5055261;28;20087;-73
2022/06/16 07:11:59;;;;;;;6.22;3.55;;;;;;;29.94;33.01;100469.47;5055325;28;20079;-73
2022/06/16 07:14:30;;;;;;;6.78;3.42;;;;;;;29.93;33.60;100459.53;5054397;28;20048;-73
2022/06/16 07:16:59;;;;;;;7.35;2.88;;;;;;;29.62;33.86;100463.78;5054743;28;20057;-74
2022/06/16 07:19:27;;;;;;;8.63;3.75;;;;;;;29.22;34.93;100457.38;5054464;28;20045;-73
2022/06/16 07:21:55;;;;;;;9.65;3.40;;;;;;;29.19;34.45;100454.22;5054650;28;20471;-73
2022/06/16 07:24:23;;;;;;;9.13;3.65;;;;;;;28.79;34.27;100457.66;5053503;28;20057;-74
2022/06/16 07:26:51;;;;;;;8.43;3.42;;;;;;;28.61;36.04;100442.81;5053817;28;20421;-73
2022/06/16 07:29:20;;;;;;;7.38;3.55;;;;;;;28.82;35.72;100450.91;5054673;28;20120;-73
2022/06/16 07:31:50;;;;;;;8.40;3.80;;;;;;;28.70;35.84;100442.44;5054683;28;20041;-73
2022/06/16 07:34:18;;;;;;;8.82;3.88;;;;;;;28.58;36.14;100443.25;5054651;28;20041;-73
2022/06/16 07:36:46;;;;;;;6.18;3.22;;;;;;;28.39;36.52;100439.34;5054697;28;20414;-73
2022/06/16 07:39:15;;;;;;;6.50;3.70;;;;;;;27.54;37.71;100445.88;5054521;28;20045;-73
2022/06/16 07:41:43;;;;;;;7.85;3.78;;;;;;;27.65;37.61;100442.59;5054637;28;20060;-73
2022/06/16 07:44:13;;;;;;;8.60;3.58;;;;;;;27.44;38.62;100445.38;5054709;28;20482;-73
2022/06/16 07:46:43;;;;;;;11.07;3.65;;;;;;;27.69;38.27;100441.19;5054748;28;20049;-73
2022/06/16 07:49:15;;;;;;;8.27;3.45;;;;;;;27.97;38.17;100445.81;5054640;28;20140;-73
2022/06/16 07:51:43;;;;;;;10.10;3.70;;;;;;;28.26;36.64;100448.31;5054786;28;20129;-73
2022/06/16 07:54:12;;;;;;;10.05;3.47;;;;;;;28.38;35.30;100435.78;5054347;28;20050;-73
2022/06/16 07:57:00;;;;;;;5.53;2.80;;;;;;;28.37;35.34;100447.75;5054540;28;20047;-73
2022/06/16 07:59:29;;;;;;;7.57;2.92;;;;;;;28.01;35.53;100438.91;5054090;28;20037;-73
2022/06/16 08:01:58;;;;;;;6.43;2.95;;;;;;;27.54;36.50;100434.94;5054244;28;20040;-73
2022/06/16 08:04:28;;;;;;;7.10;3.30;;;;;;;27.54;36.73;100438.53;5054089;28;20045;-74
2022/06/16 08:07:00;;;;;;;5.15;2.60;;;;;;;27.64;36.62;100440.91;5053955;28;20052;-74
2022/06/16 08:09:31;;;;;;;7.00;2.70;;;;;;;27.77;34.57;100430.06;5053780;28;20053;-73
2022/06/16 08:12:08;;;;;;;5.28;2.75;;;;;;;27.89;34.99;100423.00;5053978;28;20048;-73
2022/06/16 08:14:41;;;;;;;5.73;3.03;;;;;;;28.06;34.52;100425.41;5053574;28;20435;-73
2022/06/16 08:17:13;;;;;;;6.38;3.17;;;;;;;28.00;34.85;100427.09;5054261;28;20053;-73
2022/06/16 08:19:43;;;;;;;7.38;3.08;;;;;;;28.19;34.42;100429.09;5053648;28;20044;-73
2022/06/16 08:22:12;;;;;;;6.72;2.30;;;;;;;28.18;33.17;100426.53;5069377;28;20049;-73
2022/06/16 08:24:41;;;;;;;7.28;2.33;;;;;;;28.26;32.03;100422.78;5051943;28;20060;-73
2022/06/16 08:27:16;;;;;;;4.05;2.00;;;;;;;28.35;29.52;100430.66;5053227;28;20047;-73
2022/06/16 08:29:45;;;;;;;5.82;1.90;;;;;;;28.18;29.22;100432.91;5053865;28;20120;-73
2022/06/16 08:32:17;;;;;;;5.07;2.20;;;;;;;28.32;31.71;100438.47;5053942;28;20045;-73
2022/06/16 08:34:48;;;;;;;4.32;2.58;;;;;;;28.44;31.42;100437.69;5053302;28;20045;-73
2022/06/16 08:37:19;;;;;;;4.70;2.08;;;;;;;28.64;31.17;100442.41;5053299;28;20071;-74
2022/06/16 08:39:47;;;;;;;5.75;2.70;;;;;;;28.61;31.78;100437.34;5052198;28;20517;-74
2022/06/16 08:42:24;;;;;;;6.57;2.47;;;;;;;28.67;31.38;100444.75;5053369;28;20045;-74
2022/06/16 08:45:09;;;;;;;7.65;2.65;;;;;;;28.56;31.43;100434.34;5053682;28;20513;-73
2022/06/16 08:47:45;;;;;;;6.28;2.10;;;;;;;28.59;31.48;100436.69;5051679;28;20561;-73
2022/06/16 08:50:32;;;;;;;5.07;2.60;;;;;;;28.85;30.89;100439.50;5053192;28;20398;-77
2022/06/16 08:53:15;;;;;;;7.53;2.40;;;;;;;28.71;31.36;100432.28;5053293;28;20099;-73
2022/06/16 08:55:51;;;;;;;4.25;2.47;;;;;;;28.84;31.44;100428.75;5053157;28;20542;-73
2022/06/16 08:58:33;;;;;;;4.43;2.30;;;;;;;28.79;31.45;100429.38;5053114;28;20124;-73
2022/06/16 09:01:07;;;;;;;5.05;2.50;;;;;;;28.73;31.01;100422.81;5053133;28;20064;-73
2022/06/16 09:03:45;;;;;;;8.02;2.58;;;;;;;28.75;30.80;100433.56;5053074;28;20049;-73
2022/06/16 09:06:30;;;;;;;6.22;2.35;;;;;;;28.79;30.01;100434.88;5051871;28;20415;-73
2022/06/16 09:10:14;;;;;;;4.05;2.25;;;;;;;28.20;31.12;100438.16;5052292;28;20394;-75
2022/06/16 09:12:22;;;;;;;8.27;2.50;;;;;;;28.33;31.25;100437.41;5053254;28;20045;-73
2022/06/16 09:15:14;;;;;;;8.25;2.35;;;;;;;28.34;31.03;100437.22;5052991;28;20493;-74
2022/06/16 09:17:58;;;;;;;6.95;2.30;;;;;;;28.31;31.25;100425.81;5052691;28;20063;-73
2022/06/16 09:20:35;;;;;;;5.75;2.30;;;;;;;28.34;31.19;100431.72;5052792;28;20470;-73
2022/06/16 09:23:25;;;;;;;6.57;2.50;;;;;;;28.34;30.31;100426.22;5052811;28;20036;-74
2022/06/16 09:26:03;;;;;;;5.18;2.17;;;;;;;28.38;30.46;100433.03;5052964;28;20037;-73
2022/06/16 09:28:38;;;;;;;5.65;2.30;;;;;;;28.54;30.67;100430.97;5052865;28;20044;-73
2022/06/16 09:31:13;;;;;;;6.65;2.20;;;;;;;28.30;30.16;100422.22;5052478;28;20044;-73
2022/06/16 09:33:48;;;;;;;5.07;2.13;;;;;;;28.42;30.57;100423.31;5052757;28;20048;-73
2022/06/16 09:36:22;;;;;;;4.53;2.30;;;;;;;28.37;30.57;100420.34;5052686;28;20033;-73
2022/06/16 09:38:58;;;;;;;3.83;2.00;;;;;;;28.17;30.33;100413.88;5055340;28;20053;-73
2022/06/16 09:44:30;;;;;;;5.35;2.17;;;;;;;28.22;31.03;100414.13;5056980;28;20047;-74
2022/06/16 09:47:06;;;;;;;6.45;2.42;;;;;;;28.45;30.80;100411.09;5057183;28;20482;-74
2022/06/16 09:49:41;;;;;;;7.55;2.60;;;;;;;28.71;29.76;100404.84;5055089;28;20051;-74
2022/06/16 09:52:35;;;;;;;6.32;2.40;;;;;;;28.84;28.99;100404.88;5056664;28;20040;-74
2022/06/16 09:55:12;;;;;;;7.78;2.78;;;;;;;28.65;29.56;100400.19;5056908;28;20040;-73
2022/06/16 09:57:44;;;;;;;6.50;2.22;;;;;;;28.77;29.28;100404.03;5056181;28;20040;-73
2022/06/16 10:00:16;;;;;;;5.30;2.20;;;;;;;28.66;29.35;100393.63;5056650;28;20048;-74
2022/06/16 10:02:48;;;;;;;5.70;2.10;;;;;;;28.19;29.95;100406.31;5056425;28;20041;-74
2022/06/16 10:05:23;;;;;;;4.82;2.20;;;;;;;28.13;30.77;100402.47;5056628;28;20301;-73
2022/06/16 10:07:59;;;;;;;4.30;2.25;;;;;;;28.41;28.92;100394.19;5072215;28;20448;-73
2022/06/16 10:10:41;;;;;;;6.10;2.30;;;;;;;28.55;30.33;100394.25;5056454;28;20055;-74
2022/06/16 10:13:18;;;;;;;8.80;2.50;;;;;;;28.64;30.19;100404.81;5056566;28;20479;-73
2022/06/16 10:15:53;;;;;;;5.20;2.05;;;;;;;28.73;28.57;100403.59;5071425;28;20643;-74
2022/06/16 10:18:22;;;;;;;5.68;2.17;;;;;;;28.84;28.88;100393.91;5056332;28;20119;-74
2022/06/16 10:20:50;;;;;;;7.55;2.40;;;;;;;28.88;27.82;100395.19;5055804;28;20486;-74
2022/06/16 10:23:23;;;;;;;5.15;2.13;;;;;;;28.91;28.14;100399.44;5055650;28;20040;-73
2022/06/16 10:25:57;;;;;;;6.25;2.58;;;;;;;28.89;27.53;100402.41;5054915;28;20049;-73
2022/06/16 10:28:29;;;;;;;4.53;2.20;;;;;;;28.25;28.09;100386.28;5054679;28;20159;-73
2022/06/16 10:31:00;;;;;;;5.00;2.10;;;;;;;28.02;28.70;100397.56;5056269;28;20041;-73
2022/06/16 10:33:30;;;;;;;6.70;2.15;;;;;;;28.04;28.05;100389.13;5055888;28;20473;-73
2022/06/16 10:36:02;;;;;;;9.38;2.60;;;;;;;28.10;28.41;100397.41;5055921;28;20037;-74
2022/06/16 10:38:34;;;;;;;5.88;2.10;;;;;;;28.16;29.57;100396.56;5055678;28;20083;-74
2022/06/16 10:41:07;;;;;;;4.27;2.10;;;;;;;28.50;28.64;100392.13;5054410;28;20135;-74
2022/06/16 10:43:41;;;;;;;6.72;2.30;;;;;;;28.76;28.44;100394.97;5055615;28;20463;-74
2022/06/16 10:46:14;;;;;;;4.32;2.15;;;;;;;28.76;27.89;100402.34;5055712;28;20040;-74
2022/06/16 10:48:48;;;;;;;7.88;2.40;;;;;;;28.75;28.45;100401.47;5055683;28;20106;-73
2022/06/16 10:51:20;;;;;;;6.50;2.25;;;;;;;28.35;28.27;100400.50;5054724;28;20430;-73
2022/06/16 10:54:02;;;;;;;5.65;2.35;;;;;;;28.71;27.96;100389.22;5055320;28;20072;-74
2022/06/16 10:56:32;;;;;;;5.15;2.28;;;;;;;28.84;27.73;100393.91;5055362;28;20052;-74
2022/06/16 10:59:05;;;;;;;4.55;2.20;;;;;;;28.82;27.73;100389.69;5055490;28;20037;-74
2022/06/16 11:01:40;;;;;;;7.13;2.50;;;;;;;28.90;27.39;100387.63;5054313;28;20057;-74
2022/06/16 11:04:11;;;;;;;4.68;2.15;;;;;;;28.89;27.30;100388.69;5054689;28;20486;-74
2022/06/16 11:06:45;;;;;;;6.57;2.25;;;;;;;28.85;27.48;100384.59;5054118;28;20071;-74
2022/06/16 11:09:19;;;;;;;5.15;2.30;;;;;;;28.92;26.81;100382.75;5055398;28;20045;-74
2022/06/16 11:11:53;;;;;;;7.28;2.80;;;;;;;28.81;27.34;100375.09;5055240;28;20051;-74
2022/06/16 11:14:33;;;;;;;6.55;2.50;;;;;;;28.66;26.70;100363.44;5055248;28;20045;-74
2022/06/16 11:17:07;;;;;;;4.90;2.17;;;;;;;28.70;26.71;100371.06;5054989;28;20053;-74
2022/06/16 11:19:42;;;;;;;4.75;2.20;;;;;;;28.71;27.17;100366.44;5070606;28;20131;-75
2022/06/16 11:22:16;;;;;;;4.07;2.08;;;;;;;28.68;27.10;100361.38;5055281;28;20045;-74
2022/06/16 11:24:55;;;;;;;6.07;2.30;;;;;;;28.69;26.71;100352.06;5054791;28;20049;-73
2022/06/16 11:27:25;;;;;;;4.45;1.95;;;;;;;28.96;27.30;100356.59;5055071;28;20044;-74
2022/06/16 11:29:54;;;;;;;3.83;1.98;;;;;;;28.50;27.50;100348.22;5054219;28;20048;-74
2022/06/16 11:32:28;;;;;;;5.22;2.38;;;;;;;28.62;26.82;100334.75;5054559;28;20099;-73
2022/06/16 11:34:56;;;;;;;3.65;2.15;;;;;;;28.42;26.91;100335.53;5054713;28;20037;-74
2022/06/16 11:37:46;;;;;;;5.18;2.30;;;;;;;28.13;27.37;100327.59;5070312;28;20045;-73
2022/06/16 11:40:36;;;;;;;5.13;2.17;;;;;;;28.50;27.46;100329.88;5055383;28;20045;-74
2022/06/16 11:43:31;;;;;;;5.00;2.20;;;;;;;28.79;26.47;100322.31;5054928;28;20045;-73
2022/06/16 11:46:08;;;;;;;4.05;2.17;;;;;;;28.86;27.31;100331.41;5051723;28;20128;-72
2022/06/16 11:49:01;;;;;;;5.88;2.25;;;;;;;29.13;26.00;100339.69;5053255;28;20056;-72
2022/06/16 11:51:42;;;;;;;4.68;2.03;;;;;;;29.08;25.89;100321.94;5054235;28;20510;-72
2022/06/16 11:54:23;;;;;;;6.10;1.95;;;;;;;29.04;25.78;100322.56;5054667;28;20045;-72
2022/06/16 11:56:59;;;;;;;5.60;2.30;;;;;;;28.89;26.15;100319.19;5054442;28;20068;-72
2022/06/16 11:59:59;;;;;;;5.03;2.00;;;;;;;28.97;25.93;100311.59;5054545;28;20064;-72
2022/06/16 12:02:53;;;;;;;4.28;2.10;;;;;;;29.03;26.28;100308.00;5053021;28;20133;-72
2022/06/16 12:05:36;;;;;;;5.30;2.50;;;;;;;29.06;26.06;100302.09;5045982;28;20119;-73
2022/06/16 12:08:25;;;;;;;4.82;2.40;;;;;;;29.06;26.40;100293.88;5054325;28;20102;-73